createdAt,value
2017-09-12T00:00:25.545Z,0
2017-09-12T00:01:34.201Z,0
2017-09-12T00:02:43.475Z,0
2017-09-12T00:03:52.757Z,0
2017-09-12T00:05:02.040Z,0
2017-09-12T00:06:10.990Z,0
2017-09-12T00:07:20.590Z,0
2017-09-12T00:08:29.539Z,0
2017-09-12T00:09:38.527Z,0
2017-09-12T00:10:47.856Z,0
2017-09-12T00:11:57.134Z,0
2017-09-12T00:13:06.418Z,0
2017-09-12T00:14:15.389Z,0
2017-09-12T00:15:24.340Z,0
2017-09-12T00:16:33.616Z,0
2017-09-12T00:17:42.912Z,0
2017-09-12T00:18:51.881Z,0
2017-09-12T00:20:00.888Z,0
2017-09-12T00:21:09.846Z,0
2017-09-12T00:22:18.833Z,0
2017-09-12T00:23:28.128Z,0
2017-09-12T00:24:37.713Z,0
2017-09-12T00:25:46.366Z,0
2017-09-12T00:26:55.319Z,0
2017-09-12T00:28:04.275Z,0
2017-09-12T00:29:12.932Z,0
2017-09-12T00:30:22.217Z,0
2017-09-12T00:31:31.182Z,0
2017-09-12T00:32:40.146Z,0
2017-09-12T00:33:49.117Z,0
2017-09-12T00:35:30.175Z,0
2017-09-12T00:36:39.129Z,0
2017-09-12T00:37:48.723Z,0
2017-09-12T00:38:58.006Z,0
2017-09-12T00:40:07.281Z,0
2017-09-12T00:41:16.244Z,0
2017-09-12T00:42:24.889Z,0
2017-09-12T00:43:34.252Z,0
2017-09-12T00:44:43.858Z,0
2017-09-12T00:45:52.824Z,0
2017-09-12T00:47:01.803Z,0
2017-09-12T00:48:10.768Z,0
2017-09-12T00:49:20.372Z,0
2017-09-12T00:50:29.343Z,0
2017-09-12T00:51:38.618Z,0
2017-09-12T00:52:48.213Z,0
2017-09-12T00:53:57.183Z,0
2017-09-12T00:55:05.832Z,0
2017-09-12T00:56:14.789Z,0
2017-09-12T00:57:23.746Z,0
2017-09-12T00:58:32.405Z,0
2017-09-12T00:59:42.005Z,0
2017-09-12T01:00:51.288Z,0
2017-09-12T01:01:59.943Z,0
2017-09-12T01:03:08.606Z,0
2017-09-12T01:04:18.195Z,0
2017-09-12T01:05:27.470Z,0
2017-09-12T01:06:36.424Z,0
2017-09-12T01:07:45.389Z,0
2017-09-12T01:08:54.357Z,0
2017-09-12T01:10:03.005Z,0
2017-09-12T01:11:11.967Z,0
2017-09-12T01:12:20.927Z,0
2017-09-12T01:13:30.201Z,0
2017-09-12T01:14:38.856Z,0
2017-09-12T01:15:48.134Z,0
2017-09-12T01:16:56.800Z,0
2017-09-12T01:18:05.768Z,0
2017-09-12T01:19:14.731Z,0
2017-09-12T01:20:23.390Z,0
2017-09-12T01:21:33.308Z,0
2017-09-12T01:22:42.911Z,0
2017-09-12T01:23:51.872Z,0
2017-09-12T01:25:00.534Z,0
2017-09-12T01:26:09.503Z,0
2017-09-12T01:27:19.171Z,0
2017-09-12T01:28:28.150Z,0
2017-09-12T01:29:36.795Z,0
2017-09-12T01:30:45.763Z,0
2017-09-12T01:31:54.735Z,0
2017-09-12T01:33:03.706Z,0
2017-09-12T01:34:12.665Z,0
2017-09-12T01:35:21.625Z,0
2017-09-12T01:36:30.596Z,0
2017-09-12T01:37:39.557Z,0
2017-09-12T01:38:48.874Z,0
2017-09-12T01:39:57.828Z,0
2017-09-12T01:41:06.797Z,0
2017-09-12T01:42:15.782Z,0
2017-09-12T01:43:24.451Z,0
2017-09-12T01:44:33.101Z,0
2017-09-12T01:45:42.391Z,0
2017-09-12T01:46:51.349Z,0
2017-09-12T01:48:00.314Z,0
2017-09-12T01:49:08.967Z,0
2017-09-12T01:50:17.957Z,0
2017-09-12T01:51:27.869Z,0
2017-09-12T01:52:36.841Z,0
2017-09-12T01:53:46.451Z,0
2017-09-12T01:54:55.729Z,0
2017-09-12T01:56:05.019Z,0
2017-09-12T01:57:13.989Z,0
2017-09-12T01:58:22.968Z,0
2017-09-12T01:59:32.257Z,0
2017-09-12T02:00:41.219Z,0
2017-09-12T02:01:50.186Z,0
2017-09-12T02:02:59.920Z,0
2017-09-12T02:04:08.891Z,0
2017-09-12T02:05:17.547Z,0
2017-09-12T02:06:26.522Z,0
2017-09-12T02:07:35.494Z,0
2017-09-12T02:08:44.451Z,0
2017-09-12T02:09:53.727Z,0
2017-09-12T02:11:03.005Z,0
2017-09-12T02:12:11.977Z,0
2017-09-12T02:13:21.256Z,0
2017-09-12T02:14:30.210Z,0
2017-09-12T02:15:38.870Z,0
2017-09-12T02:16:47.843Z,0
2017-09-12T02:17:56.517Z,0
2017-09-12T02:19:05.167Z,0
2017-09-12T02:20:14.778Z,0
2017-09-12T02:21:24.067Z,0
2017-09-12T02:22:33.028Z,0
2017-09-12T02:23:41.739Z,0
2017-09-12T02:24:50.407Z,0
2017-09-12T02:25:59.052Z,0
2017-09-12T02:27:08.322Z,0
2017-09-12T02:28:17.604Z,0
2017-09-12T02:29:26.580Z,0
2017-09-12T02:30:35.226Z,0
2017-09-12T02:31:44.516Z,0
2017-09-12T02:32:54.117Z,0
2017-09-12T02:34:03.139Z,0
2017-09-12T02:35:12.729Z,0
2017-09-12T02:36:22.652Z,0
2017-09-12T02:37:31.627Z,0
2017-09-12T02:38:41.236Z,0
2017-09-12T02:39:50.198Z,0
2017-09-12T02:41:00.438Z,0
2017-09-12T02:42:09.732Z,0
2017-09-12T02:43:18.381Z,0
2017-09-12T02:44:27.665Z,0
2017-09-12T02:45:36.645Z,0
2017-09-12T02:46:45.931Z,0
2017-09-12T02:47:54.572Z,0
2017-09-12T02:49:03.841Z,0
2017-09-12T02:50:12.504Z,0
2017-09-12T02:51:21.794Z,0
2017-09-12T02:52:30.445Z,0
2017-09-12T02:53:39.111Z,0
2017-09-12T02:54:48.392Z,0
2017-09-12T02:55:57.683Z,0
2017-09-12T02:57:06.656Z,0
2017-09-12T02:58:15.311Z,0
2017-09-12T02:59:24.284Z,0
2017-09-12T03:00:33.254Z,0
2017-09-12T03:01:42.218Z,0
2017-09-12T03:02:51.177Z,0
2017-09-12T03:04:00.763Z,0
2017-09-12T03:05:09.409Z,0
2017-09-12T03:06:18.678Z,0
2017-09-12T03:07:27.650Z,0
2017-09-12T03:08:36.940Z,0
2017-09-12T03:09:45.604Z,0
2017-09-12T03:10:54.245Z,0
2017-09-12T03:12:03.214Z,0
2017-09-12T03:13:12.842Z,0
2017-09-12T03:14:21.828Z,0
2017-09-12T03:15:30.819Z,0
2017-09-12T03:16:40.114Z,0
2017-09-12T03:17:49.380Z,0
2017-09-12T03:18:58.345Z,0
2017-09-12T03:20:07.943Z,0
2017-09-12T03:21:16.607Z,0
2017-09-12T03:22:26.196Z,0
2017-09-12T03:23:34.862Z,0
2017-09-12T03:24:44.150Z,0
2017-09-12T03:25:53.422Z,0
2017-09-12T03:27:02.388Z,0
2017-09-12T03:28:11.035Z,0
2017-09-12T03:29:20.639Z,0
2017-09-12T03:30:29.928Z,0
2017-09-12T03:31:38.975Z,0
2017-09-12T03:32:47.939Z,0
2017-09-12T03:33:56.912Z,0
2017-09-12T03:35:05.873Z,0
2017-09-12T03:36:15.188Z,0
2017-09-12T03:37:23.833Z,0
2017-09-12T03:38:33.105Z,0
2017-09-12T03:39:42.382Z,0
2017-09-12T03:40:51.345Z,0
2017-09-12T03:42:00.936Z,0
2017-09-12T03:43:09.897Z,0
2017-09-12T03:44:18.866Z,0
2017-09-12T03:45:27.523Z,0
2017-09-12T03:46:36.802Z,0
2017-09-12T03:47:45.767Z,0
2017-09-12T03:48:54.749Z,0
2017-09-12T03:50:03.400Z,0
2017-09-12T03:51:12.364Z,0
2017-09-12T03:52:21.956Z,0
2017-09-12T03:53:30.911Z,0
2017-09-12T03:54:40.191Z,0
2017-09-12T03:55:49.482Z,0
2017-09-12T03:56:58.439Z,0
2017-09-12T03:58:07.421Z,0
2017-09-12T03:59:16.380Z,0
2017-09-12T04:00:25.346Z,0
2017-09-12T04:01:34.317Z,0
2017-09-12T04:02:43.590Z,0
2017-09-12T04:03:52.548Z,0
2017-09-12T04:05:01.210Z,0
2017-09-12T04:06:09.860Z,0
2017-09-12T04:07:18.823Z,0
2017-09-12T04:08:28.099Z,0
2017-09-12T04:09:37.692Z,0
2017-09-12T04:10:46.697Z,0
2017-09-12T04:11:55.343Z,0
2017-09-12T04:13:04.646Z,0
2017-09-12T04:14:13.613Z,0
2017-09-12T04:15:22.907Z,0
2017-09-12T04:16:32.180Z,0
2017-09-12T04:17:41.461Z,0
2017-09-12T04:18:50.146Z,0
2017-09-12T04:19:59.449Z,0
2017-09-12T04:21:09.072Z,0
2017-09-12T04:22:17.752Z,0
2017-09-12T04:23:26.740Z,0
2017-09-12T04:24:36.033Z,0
2017-09-12T04:25:45.050Z,0
2017-09-12T04:26:54.356Z,0
2017-09-12T04:28:03.336Z,0
2017-09-12T04:29:12.610Z,0
2017-09-12T04:30:22.211Z,0
2017-09-12T04:31:30.881Z,0
2017-09-12T04:32:40.479Z,0
2017-09-12T04:33:49.456Z,0
2017-09-12T04:34:58.426Z,0
2017-09-12T04:36:07.388Z,0
2017-09-12T04:37:16.687Z,0
2017-09-12T04:38:25.638Z,0
2017-09-12T04:39:34.937Z,0
2017-09-12T04:40:43.910Z,0
2017-09-12T04:41:52.619Z,0
2017-09-12T04:43:01.582Z,0
2017-09-12T04:44:10.625Z,0
2017-09-12T04:45:19.591Z,0
2017-09-12T04:46:28.882Z,0
2017-09-12T04:47:38.167Z,0
2017-09-12T04:48:46.870Z,0
2017-09-12T04:49:56.155Z,0
2017-09-12T04:51:04.821Z,0
2017-09-12T04:52:13.795Z,0
2017-09-12T04:53:23.080Z,4
2017-09-12T04:54:32.049Z,4
2017-09-12T04:55:41.040Z,4
2017-09-12T04:56:50.356Z,4
2017-09-12T04:57:59.652Z,4
2017-09-12T04:59:08.309Z,4
2017-09-12T05:00:16.973Z,8
2017-09-12T05:01:25.970Z,8
2017-09-12T05:02:35.005Z,8
2017-09-12T05:03:44.283Z,8
2017-09-12T05:04:53.258Z,8
2017-09-12T05:06:01.913Z,8
2017-09-12T05:07:11.223Z,12
2017-09-12T05:08:19.919Z,12
2017-09-12T05:09:28.595Z,8
2017-09-12T05:10:38.183Z,12
2017-09-12T05:11:46.915Z,12
2017-09-12T05:12:56.243Z,12
2017-09-12T05:14:04.913Z,16
2017-09-12T05:15:14.219Z,20
2017-09-12T05:16:23.194Z,24
2017-09-12T05:17:32.216Z,24
2017-09-12T05:18:41.510Z,24
2017-09-12T05:19:50.800Z,28
2017-09-12T05:21:00.426Z,28
2017-09-12T05:22:09.431Z,36
2017-09-12T05:23:18.718Z,44
2017-09-12T05:24:27.682Z,64
2017-09-12T05:25:36.975Z,88
2017-09-12T05:26:46.595Z,100
2017-09-12T05:27:55.910Z,104
2017-09-12T05:29:05.194Z,80
2017-09-12T05:30:14.473Z,68
2017-09-12T05:31:23.116Z,76
2017-09-12T05:32:32.112Z,88
2017-09-12T05:33:40.763Z,104
2017-09-12T05:34:50.066Z,120
2017-09-12T05:35:59.663Z,128
2017-09-12T05:37:08.630Z,148
2017-09-12T05:38:17.901Z,168
2017-09-12T05:39:26.869Z,188
2017-09-12T05:40:36.145Z,212
2017-09-12T05:41:45.111Z,208
2017-09-12T05:42:54.089Z,212
2017-09-12T05:44:03.056Z,220
2017-09-12T05:45:12.024Z,232
2017-09-12T05:46:20.992Z,232
2017-09-12T05:47:30.291Z,252
2017-09-12T05:48:39.582Z,260
2017-09-12T05:49:48.555Z,252
2017-09-12T05:50:57.222Z,264
2017-09-12T05:52:06.178Z,280
2017-09-12T05:53:15.155Z,284
2017-09-12T05:54:23.847Z,292
2017-09-12T05:55:32.827Z,296
2017-09-12T05:56:41.801Z,308
2017-09-12T05:57:51.088Z,340
2017-09-12T05:59:00.730Z,360
2017-09-12T06:00:10.004Z,400
2017-09-12T06:01:18.654Z,524
2017-09-12T06:02:28.245Z,676
2017-09-12T06:03:37.883Z,716
2017-09-12T06:04:47.203Z,612
2017-09-12T06:05:56.431Z,500
2017-09-12T06:07:05.418Z,488
2017-09-12T06:08:14.383Z,504
2017-09-12T06:09:23.668Z,488
2017-09-12T06:10:33.004Z,484
2017-09-12T06:11:42.284Z,568
2017-09-12T06:12:51.578Z,756
2017-09-12T06:14:00.866Z,824
2017-09-12T06:15:09.543Z,780
2017-09-12T06:16:18.837Z,832
2017-09-12T06:17:27.813Z,856
2017-09-12T06:18:36.467Z,908
2017-09-12T06:19:45.748Z,940
2017-09-12T06:20:54.417Z,944
2017-09-12T06:22:03.727Z,968
2017-09-12T06:23:12.698Z,960
2017-09-12T06:24:21.662Z,844
2017-09-12T06:25:30.635Z,816
2017-09-12T06:26:39.927Z,764
2017-09-12T06:27:48.587Z,916
2017-09-12T06:28:57.555Z,1048
2017-09-12T06:30:06.521Z,924
2017-09-12T06:31:15.212Z,1036
2017-09-12T06:32:23.911Z,1100
2017-09-12T06:33:32.580Z,1444
2017-09-12T06:34:41.570Z,1500
2017-09-12T06:35:50.273Z,1392
2017-09-12T06:36:59.890Z,1120
2017-09-12T06:38:08.869Z,836
2017-09-12T06:39:17.527Z,1084
2017-09-12T06:40:26.812Z,1104
2017-09-12T06:41:36.095Z,1216
2017-09-12T06:42:44.747Z,1412
2017-09-12T06:43:53.734Z,1756
2017-09-12T06:45:02.708Z,2376
2017-09-12T06:46:11.708Z,2016
2017-09-12T06:47:21.691Z,1968
2017-09-12T06:48:31.331Z,2064
2017-09-12T06:49:40.307Z,2532
2017-09-12T06:50:48.971Z,2824
2017-09-12T06:51:58.250Z,2692
2017-09-12T06:53:07.543Z,3056
2017-09-12T06:54:16.515Z,2592
2017-09-12T06:55:25.492Z,2624
2017-09-12T06:56:34.159Z,2604
2017-09-12T06:57:43.177Z,2948
2017-09-12T06:58:51.849Z,2836
2017-09-12T07:00:00.516Z,2508
2017-09-12T07:01:09.816Z,2276
2017-09-12T07:02:19.101Z,2036
2017-09-12T07:03:28.071Z,2724
2017-09-12T07:04:37.043Z,2392
2017-09-12T07:05:46.015Z,1628
2017-09-12T07:06:55.634Z,1296
2017-09-12T07:08:04.612Z,1044
2017-09-12T07:09:14.536Z,836
2017-09-12T07:10:23.509Z,684
2017-09-12T07:11:32.484Z,572
2017-09-12T07:12:41.761Z,616
2017-09-12T07:13:50.735Z,644
2017-09-12T07:15:00.034Z,1068
2017-09-12T07:16:08.701Z,1144
2017-09-12T07:17:17.991Z,1764
2017-09-12T07:18:26.965Z,1688
2017-09-12T07:19:35.941Z,1364
2017-09-12T07:20:45.229Z,1408
2017-09-12T07:21:54.208Z,1528
2017-09-12T07:23:03.248Z,1488
2017-09-12T07:24:12.332Z,1088
2017-09-12T07:25:22.322Z,1088
2017-09-12T07:26:31.627Z,984
2017-09-12T07:27:40.928Z,784
2017-09-12T07:28:50.549Z,640
2017-09-12T07:29:59.533Z,580
2017-09-12T07:31:08.504Z,584
2017-09-12T07:32:17.516Z,652
2017-09-12T07:33:26.482Z,772
2017-09-12T07:34:36.095Z,980
2017-09-12T07:35:44.784Z,1816
2017-09-12T07:36:53.444Z,2428
2017-09-12T07:38:02.421Z,2400
2017-09-12T07:39:11.398Z,2228
2017-09-12T07:40:21.312Z,2072
2017-09-12T07:41:30.281Z,1736
2017-09-12T07:42:39.263Z,1860
2017-09-12T07:43:48.229Z,3056
2017-09-12T07:44:56.913Z,3172
2017-09-12T07:46:05.573Z,2340
2017-09-12T07:47:14.549Z,2064
2017-09-12T07:48:24.162Z,2244
2017-09-12T07:49:32.806Z,2892
2017-09-12T07:50:41.457Z,3628
2017-09-12T07:51:50.426Z,3776
2017-09-12T07:52:59.724Z,3188
2017-09-12T07:54:08.377Z,2764
2017-09-12T07:55:17.351Z,3208
2017-09-12T07:56:26.334Z,3912
2017-09-12T07:57:35.300Z,3632
2017-09-12T07:58:44.267Z,3004
2017-09-12T07:59:53.558Z,2652
2017-09-12T08:01:02.541Z,2912
2017-09-12T08:02:11.197Z,3248
2017-09-12T08:03:20.169Z,3708
2017-09-12T08:04:29.141Z,3948
2017-09-12T08:05:37.797Z,3852
2017-09-12T08:06:47.092Z,3480
2017-09-12T08:07:55.756Z,2904
2017-09-12T08:09:05.055Z,1996
2017-09-12T08:10:13.715Z,1608
2017-09-12T08:11:23.020Z,1644
2017-09-12T08:12:32.000Z,1664
2017-09-12T08:13:40.657Z,1772
2017-09-12T08:14:49.332Z,1840
2017-09-12T08:15:58.914Z,2152
2017-09-12T08:17:07.570Z,2524
2017-09-12T08:18:16.545Z,3216
2017-09-12T08:19:25.842Z,1916
2017-09-12T08:20:35.453Z,1888
2017-09-12T08:21:45.045Z,2164
2017-09-12T08:22:54.040Z,2172
2017-09-12T08:24:03.319Z,1292
2017-09-12T08:25:12.291Z,2808
2017-09-12T08:26:21.590Z,2124
2017-09-12T08:27:30.250Z,1732
2017-09-12T08:28:39.234Z,1620
2017-09-12T08:29:47.890Z,1596
2017-09-12T08:30:56.874Z,1988
2017-09-12T08:32:06.164Z,1496
2017-09-12T08:33:15.147Z,3172
2017-09-12T08:34:24.433Z,3144
2017-09-12T08:35:33.720Z,2008
2017-09-12T08:36:43.003Z,1376
2017-09-12T08:37:52.619Z,1344
2017-09-12T08:39:01.921Z,1844
2017-09-12T08:40:10.908Z,1256
2017-09-12T08:41:20.198Z,1472
2017-09-12T08:42:29.482Z,1236
2017-09-12T08:43:38.773Z,1324
2017-09-12T08:44:48.075Z,1468
2017-09-12T08:45:57.678Z,1124
2017-09-12T08:47:06.650Z,1284
2017-09-12T08:48:15.297Z,992
2017-09-12T08:49:23.944Z,752
2017-09-12T08:50:32.932Z,692
2017-09-12T08:51:42.221Z,864
2017-09-12T08:52:51.508Z,584
2017-09-12T08:54:00.497Z,536
2017-09-12T08:55:09.474Z,468
2017-09-12T08:56:18.777Z,572
2017-09-12T08:57:28.407Z,688
2017-09-12T08:58:38.009Z,628
2017-09-12T08:59:47.307Z,408
2017-09-12T09:00:56.280Z,392
2017-09-12T09:02:05.260Z,404
2017-09-12T09:03:14.227Z,444
2017-09-12T09:04:22.883Z,580
2017-09-12T09:05:32.173Z,660
2017-09-12T09:06:40.830Z,776
2017-09-12T09:07:49.817Z,792
2017-09-12T09:08:58.544Z,784
2017-09-12T09:10:07.203Z,1160
2017-09-12T09:11:16.491Z,2208
2017-09-12T09:12:25.166Z,2880
2017-09-12T09:13:33.831Z,2056
2017-09-12T09:14:43.118Z,2548
2017-09-12T09:15:52.117Z,3336
2017-09-12T09:17:01.409Z,3040
2017-09-12T09:18:10.094Z,2772
2017-09-12T09:19:18.768Z,3496
2017-09-12T09:20:27.429Z,2604
2017-09-12T09:21:36.398Z,2296
2017-09-12T09:22:45.375Z,2128
2017-09-12T09:23:54.754Z,3288
2017-09-12T09:25:03.417Z,3992
2017-09-12T09:26:13.092Z,3336
2017-09-12T09:27:22.710Z,3856
2017-09-12T09:28:32.023Z,3584
2017-09-12T09:29:40.675Z,3824
2017-09-12T09:30:49.660Z,4332
2017-09-12T09:31:58.647Z,4616
2017-09-12T09:33:07.319Z,3692
2017-09-12T09:34:16.617Z,2736
2017-09-12T09:35:25.594Z,2420
2017-09-12T09:36:34.572Z,1800
2017-09-12T09:37:44.188Z,1488
2017-09-12T09:38:53.207Z,1416
2017-09-12T09:40:02.183Z,1404
2017-09-12T09:41:11.798Z,1268
2017-09-12T09:42:20.777Z,1236
2017-09-12T09:43:30.062Z,1184
2017-09-12T09:44:38.743Z,1192
2017-09-12T09:45:48.034Z,1208
2017-09-12T09:46:57.014Z,1204
2017-09-12T09:48:06.338Z,1200
2017-09-12T09:49:15.314Z,1188
2017-09-12T09:50:24.274Z,1184
2017-09-12T09:51:33.245Z,1220
2017-09-12T09:52:42.226Z,1300
2017-09-12T09:53:51.828Z,1732
2017-09-12T09:55:00.479Z,1712
2017-09-12T09:56:10.408Z,1780
2017-09-12T09:57:20.018Z,1292
2017-09-12T09:58:28.673Z,2276
2017-09-12T09:59:38.300Z,1980
2017-09-12T10:00:47.585Z,1752
2017-09-12T10:01:56.889Z,1892
2017-09-12T10:03:05.547Z,1924
2017-09-12T10:04:14.516Z,1848
2017-09-12T10:05:23.503Z,2364
2017-09-12T10:06:32.799Z,2580
2017-09-12T10:07:41.466Z,1816
2017-09-12T10:08:50.437Z,1664
2017-09-12T10:09:59.731Z,1744
2017-09-12T10:11:09.025Z,1892
2017-09-12T10:12:18.022Z,2128
2017-09-12T10:13:26.997Z,1632
2017-09-12T10:14:36.286Z,1376
2017-09-12T10:15:45.568Z,1420
2017-09-12T10:16:54.237Z,1400
2017-09-12T10:18:02.896Z,1260
2017-09-12T10:19:11.859Z,1252
2017-09-12T10:20:21.146Z,1292
2017-09-12T10:21:30.445Z,1476
2017-09-12T10:22:39.088Z,1820
2017-09-12T10:23:48.053Z,2568
2017-09-12T10:24:56.712Z,3152
2017-09-12T10:26:05.690Z,2364
2017-09-12T10:27:15.293Z,1740
2017-09-12T10:28:24.899Z,1476
2017-09-12T10:29:33.869Z,1616
2017-09-12T10:30:43.160Z,1432
2017-09-12T10:31:51.819Z,1328
2017-09-12T10:33:00.802Z,1440
2017-09-12T10:34:10.090Z,1788
2017-09-12T10:35:18.746Z,1464
2017-09-12T10:36:28.050Z,1104
2017-09-12T10:37:37.359Z,896
2017-09-12T10:38:46.357Z,908
2017-09-12T10:39:55.323Z,1048
2017-09-12T10:41:03.996Z,920
2017-09-12T10:42:13.289Z,1016
2017-09-12T10:43:22.282Z,996
2017-09-12T10:44:31.266Z,884
2017-09-12T10:45:40.246Z,852
2017-09-12T10:46:49.542Z,856
2017-09-12T10:47:58.194Z,824
2017-09-12T10:49:07.169Z,988
2017-09-12T10:50:15.841Z,1016
2017-09-12T10:51:25.127Z,1156
2017-09-12T10:52:34.410Z,956
2017-09-12T10:53:43.694Z,892
2017-09-12T10:54:52.675Z,912
2017-09-12T10:56:01.669Z,824
2017-09-12T10:57:10.644Z,1020
2017-09-12T10:58:19.635Z,1548
2017-09-12T10:59:28.973Z,1716
2017-09-12T11:00:37.955Z,1436
2017-09-12T11:01:47.560Z,1116
2017-09-12T11:02:56.856Z,1040
2017-09-12T11:04:05.841Z,1060
2017-09-12T11:05:14.822Z,1068
2017-09-12T11:06:24.143Z,1048
2017-09-12T11:07:33.107Z,1048
2017-09-12T11:08:42.407Z,1084
2017-09-12T11:09:52.040Z,1296
2017-09-12T11:11:01.046Z,1324
2017-09-12T11:12:10.643Z,976
2017-09-12T11:13:19.935Z,1044
2017-09-12T11:14:28.622Z,1504
2017-09-12T11:15:37.921Z,1788
2017-09-12T11:16:46.887Z,1448
2017-09-12T11:17:55.856Z,1280
2017-09-12T11:19:04.838Z,1464
2017-09-12T11:20:13.820Z,1296
2017-09-12T11:21:22.800Z,1520
2017-09-12T11:22:32.101Z,1432
2017-09-12T11:23:41.395Z,1140
2017-09-12T11:24:50.367Z,968
2017-09-12T11:25:59.650Z,1380
2017-09-12T11:27:09.247Z,1340
2017-09-12T11:28:18.214Z,984
2017-09-12T11:29:26.890Z,896
2017-09-12T11:30:36.198Z,760
2017-09-12T11:31:44.876Z,684
2017-09-12T11:32:54.800Z,836
2017-09-12T11:34:03.470Z,956
2017-09-12T11:35:12.128Z,1092
2017-09-12T11:36:21.111Z,1172
2017-09-12T11:37:30.383Z,1068
2017-09-12T11:38:39.672Z,956
2017-09-12T11:39:48.960Z,836
2017-09-12T11:40:58.249Z,700
2017-09-12T11:42:07.219Z,1140
2017-09-12T11:43:16.815Z,1760
2017-09-12T11:44:26.419Z,1440
2017-09-12T11:45:35.398Z,1392
2017-09-12T11:46:44.366Z,1708
2017-09-12T11:47:53.653Z,1836
2017-09-12T11:49:02.315Z,1864
2017-09-12T11:50:11.604Z,1772
2017-09-12T11:51:20.589Z,1604
2017-09-12T11:52:30.511Z,1540
2017-09-12T11:53:39.183Z,1784
2017-09-12T11:54:48.185Z,1836
2017-09-12T11:55:56.848Z,1588
2017-09-12T11:57:05.552Z,1204
2017-09-12T11:58:14.230Z,876
2017-09-12T11:59:23.221Z,844
2017-09-12T12:00:32.840Z,768
2017-09-12T12:01:41.815Z,1016
2017-09-12T12:02:51.129Z,1512
2017-09-12T12:04:00.417Z,1568
2017-09-12T12:05:09.401Z,888
2017-09-12T12:06:18.673Z,876
2017-09-12T12:07:27.970Z,968
2017-09-12T12:08:37.263Z,1640
2017-09-12T12:09:46.556Z,1996
2017-09-12T12:10:55.861Z,1760
2017-09-12T12:12:04.829Z,1288
2017-09-12T12:13:14.436Z,1152
2017-09-12T12:14:24.414Z,1372
2017-09-12T12:15:33.392Z,1048
2017-09-12T12:16:42.672Z,856
2017-09-12T12:17:51.657Z,916
2017-09-12T12:19:00.639Z,1196
2017-09-12T12:20:09.939Z,1304
2017-09-12T12:21:18.616Z,1692
2017-09-12T12:22:27.603Z,2096
2017-09-12T12:23:36.569Z,1624
2017-09-12T12:24:45.622Z,1868
2017-09-12T12:25:54.605Z,1548
2017-09-12T12:27:03.632Z,1396
2017-09-12T12:28:12.615Z,1176
2017-09-12T12:29:21.594Z,1608
2017-09-12T12:30:30.897Z,1488
2017-09-12T12:31:39.869Z,1052
2017-09-12T12:32:48.841Z,1380
2017-09-12T12:33:57.508Z,1144
2017-09-12T12:35:06.511Z,1288
2017-09-12T12:36:15.160Z,1292
2017-09-12T12:37:24.434Z,1616
2017-09-12T12:38:33.408Z,1652
2017-09-12T12:39:43.006Z,1484
2017-09-12T12:40:51.663Z,1572
2017-09-12T12:42:00.959Z,1488
2017-09-12T12:43:10.270Z,1900
2017-09-12T12:44:19.875Z,1860
2017-09-12T12:45:28.526Z,1660
2017-09-12T12:46:37.183Z,1448
2017-09-12T12:47:46.154Z,1280
2017-09-12T12:48:55.117Z,1260
2017-09-12T12:50:04.739Z,1232
2017-09-12T12:51:13.719Z,1120
2017-09-12T12:52:22.694Z,1172
2017-09-12T12:53:31.663Z,1136
2017-09-12T12:54:41.271Z,1180
2017-09-12T12:55:50.872Z,1300
2017-09-12T12:56:59.863Z,1344
2017-09-12T12:58:08.830Z,1056
2017-09-12T12:59:17.812Z,872
2017-09-12T13:00:27.107Z,1140
2017-09-12T13:01:35.770Z,1112
2017-09-12T13:02:45.063Z,1288
2017-09-12T13:03:54.675Z,1412
2017-09-12T13:05:03.342Z,1264
2017-09-12T13:06:12.367Z,1160
2017-09-12T13:07:21.390Z,1196
2017-09-12T13:08:30.364Z,1396
2017-09-12T13:09:39.346Z,1536
2017-09-12T13:10:48.631Z,1616
2017-09-12T13:11:58.243Z,1584
2017-09-12T13:13:07.854Z,1908
2017-09-12T13:14:16.527Z,1932
2017-09-12T13:15:25.191Z,1536
2017-09-12T13:16:34.167Z,1672
2017-09-12T13:17:43.467Z,2016
2017-09-12T13:18:53.444Z,2452
2017-09-12T13:20:02.441Z,3212
2017-09-12T13:21:11.429Z,3024
2017-09-12T13:22:20.388Z,2128
2017-09-12T13:23:29.679Z,1208
2017-09-12T13:24:38.351Z,560
2017-09-12T13:25:47.355Z,412
2017-09-12T13:26:56.036Z,356
2017-09-12T13:28:05.327Z,548
2017-09-12T13:29:14.300Z,680
2017-09-12T13:30:23.287Z,804
2017-09-12T13:31:32.259Z,644
2017-09-12T13:32:41.887Z,420
2017-09-12T13:33:51.486Z,384
2017-09-12T13:35:00.470Z,224
2017-09-12T13:36:09.773Z,228
2017-09-12T13:37:19.378Z,268
2017-09-12T13:38:28.349Z,376
2017-09-12T13:39:37.336Z,528
2017-09-12T13:40:46.309Z,732
2017-09-12T13:41:56.229Z,952
2017-09-12T13:43:05.512Z,1120
2017-09-12T13:44:14.796Z,1308
2017-09-12T13:45:23.776Z,1420
2017-09-12T13:46:32.449Z,1320
2017-09-12T13:47:41.098Z,1164
2017-09-12T13:48:50.394Z,1180
2017-09-12T13:49:59.372Z,1212
2017-09-12T13:51:08.049Z,1332
2017-09-12T13:52:17.353Z,1716
2017-09-12T13:53:26.015Z,2056
2017-09-12T13:54:35.625Z,1824
2017-09-12T13:55:44.276Z,1372
2017-09-12T13:56:53.305Z,1036
2017-09-12T13:58:01.959Z,832
2017-09-12T13:59:10.991Z,736
2017-09-12T14:00:20.286Z,764
2017-09-12T14:01:29.889Z,800
2017-09-12T14:02:38.538Z,888
2017-09-12T14:03:47.215Z,956
2017-09-12T14:04:56.183Z,952
2017-09-12T14:06:04.851Z,1136
2017-09-12T14:07:14.133Z,1136
2017-09-12T14:08:22.800Z,1472
2017-09-12T14:09:32.089Z,1544
2017-09-12T14:10:41.387Z,1360
2017-09-12T14:11:51.305Z,1180
2017-09-12T14:12:59.975Z,980
2017-09-12T14:14:08.952Z,760
2017-09-12T14:15:18.273Z,708
2017-09-12T14:16:26.934Z,620
2017-09-12T14:17:35.908Z,696
2017-09-12T14:18:44.572Z,696
2017-09-12T14:19:53.564Z,696
2017-09-12T14:21:02.848Z,680
2017-09-12T14:22:11.829Z,672
2017-09-12T14:23:21.136Z,676
2017-09-12T14:24:30.133Z,688
2017-09-12T14:25:38.822Z,696
2017-09-12T14:26:48.453Z,708
2017-09-12T14:27:57.431Z,752
2017-09-12T14:29:06.091Z,788
2017-09-12T14:30:15.442Z,748
2017-09-12T14:31:24.403Z,948
2017-09-12T14:32:33.072Z,1092
2017-09-12T14:33:42.119Z,912
2017-09-12T14:34:51.721Z,936
2017-09-12T14:36:00.989Z,1112
2017-09-12T14:37:09.973Z,968
2017-09-12T14:38:18.644Z,1248
2017-09-12T14:39:28.249Z,1640
2017-09-12T14:40:37.538Z,1892
2017-09-12T14:41:46.828Z,2144
2017-09-12T14:42:56.449Z,2244
2017-09-12T14:44:05.798Z,1928
2017-09-12T14:45:14.468Z,1508
2017-09-12T14:46:23.433Z,1220
2017-09-12T14:47:32.397Z,1028
2017-09-12T14:48:42.031Z,872
2017-09-12T14:49:51.316Z,828
2017-09-12T14:51:00.291Z,880
2017-09-12T14:52:09.893Z,928
2017-09-12T14:53:18.872Z,956
2017-09-12T14:54:28.546Z,900
2017-09-12T14:55:37.834Z,800
2017-09-12T14:56:47.130Z,720
2017-09-12T14:57:56.100Z,676
2017-09-12T14:59:05.394Z,696
2017-09-12T15:00:14.763Z,852
2017-09-12T15:01:24.080Z,1000
2017-09-12T15:02:34.146Z,1092
2017-09-12T15:03:43.121Z,1160
2017-09-12T15:04:52.104Z,1236
2017-09-12T15:06:01.073Z,1360
2017-09-12T15:07:09.736Z,1452
2017-09-12T15:08:18.398Z,1464
2017-09-12T15:09:27.390Z,1452
2017-09-12T15:10:37.021Z,1452
2017-09-12T15:11:46.004Z,1388
2017-09-12T15:12:54.982Z,1180
2017-09-12T15:14:03.953Z,964
2017-09-12T15:15:12.912Z,840
2017-09-12T15:16:21.569Z,796
2017-09-12T15:17:31.498Z,732
2017-09-12T15:18:40.793Z,656
2017-09-12T15:19:49.780Z,604
2017-09-12T15:20:58.761Z,500
2017-09-12T15:22:07.725Z,532
2017-09-12T15:23:17.029Z,532
2017-09-12T15:24:26.387Z,468
2017-09-12T15:25:35.405Z,548
2017-09-12T15:26:44.065Z,464
2017-09-12T15:27:52.724Z,472
2017-09-12T15:29:02.015Z,468
2017-09-12T15:30:11.314Z,508
2017-09-12T15:31:20.919Z,476
2017-09-12T15:32:29.642Z,480
2017-09-12T15:33:38.644Z,536
2017-09-12T15:34:47.658Z,608
2017-09-12T15:35:56.943Z,572
2017-09-12T15:37:06.536Z,504
2017-09-12T15:38:15.816Z,544
2017-09-12T15:39:24.797Z,604
2017-09-12T15:40:34.088Z,724
2017-09-12T15:41:43.126Z,932
2017-09-12T15:42:52.134Z,972
2017-09-12T15:44:01.122Z,960
2017-09-12T15:45:10.467Z,972
2017-09-12T15:46:19.879Z,936
2017-09-12T15:47:28.962Z,1080
2017-09-12T15:48:37.945Z,1248
2017-09-12T15:49:46.930Z,1228
2017-09-12T15:50:56.377Z,932
2017-09-12T15:52:05.039Z,704
2017-09-12T15:53:14.649Z,692
2017-09-12T15:54:24.605Z,596
2017-09-12T15:55:33.570Z,660
2017-09-12T15:56:42.554Z,700
2017-09-12T15:57:51.213Z,680
2017-09-12T15:59:00.289Z,668
2017-09-12T16:00:08.948Z,548